Time;durP1;ratioP1;P1;durP2;ratioP2;P2;SDS_P1;SDS_P2;PMS_P1;PMS_P2;Temp;Humidity;BMP_temperature;BMP_pressure;BME280_temperature;BME280_humidity;BME280_pressure;Samples;Min_cycle;Max_cycle;Signal;HPM_P1;HPM_P2
2021/12/11 00:01:49;;;;;;;4.47;4.07;;;20.90;42.00;;;;;;5056819;28;43501;-62
2021/12/11 00:04:22;;;;;;;5.25;4.75;;;20.80;41.90;;;;;;5069483;28;44676;-63
2021/12/11 00:06:52;;;;;;;4.85;4.45;;;20.80;41.90;;;;;;5072792;28;43766;-62
2021/12/11 00:09:23;;;;;;;4.72;4.32;;;20.80;41.90;;;;;;5051608;28;44050;-63
2021/12/11 00:12:04;;;;;;;4.40;4.00;;;20.80;42.00;;;;;;5056469;28;43519;-61
2021/12/11 00:14:36;;;;;;;4.60;4.20;;;20.80;41.90;;;;;;5073273;28;43814;-63
2021/12/11 00:17:05;;;;;;;4.70;4.18;;;20.80;42.00;;;;;;5060782;28;43499;-63
2021/12/11 00:19:36;;;;;;;4.55;4.15;;;20.70;41.90;;;;;;5061146;28;43489;-61
2021/12/11 00:22:16;;;;;;;4.68;4.28;;;20.70;41.90;;;;;;5071856;28;43577;-62
2021/12/11 00:24:44;;;;;;;4.28;3.90;;;20.70;41.90;;;;;;5075957;28;43835;-62
2021/12/11 00:27:18;;;;;;;4.60;4.20;;;20.70;41.90;;;;;;5069279;28;43473;-63
2021/12/11 00:29:46;;;;;;;4.40;4.00;;;20.70;41.90;;;;;;5056620;28;43485;-63
2021/12/11 00:32:27;;;;;;;4.18;3.88;;;20.70;41.90;;;;;;5069642;28;43475;-62
2021/12/11 00:34:59;;;;;;;4.50;4.10;;;20.70;41.90;;;;;;5074505;28;43812;-63
2021/12/11 00:37:27;;;;;;;4.70;4.30;;;20.70;42.00;;;;;;5063781;28;43425;-62
2021/12/11 00:40:06;;;;;;;4.60;4.03;;;20.70;41.90;;;;;;5057279;28;43506;-63
2021/12/11 00:42:34;;;;;;;4.40;4.07;;;20.60;41.90;;;;;;5047299;28;43554;-62
2021/12/11 00:45:12;;;;;;;4.50;4.10;;;20.60;41.80;;;;;;5069728;28;44059;-63
2021/12/11 00:47:52;;;;;;;3.80;3.50;;;20.60;41.90;;;;;;5048413;28;43729;-63
2021/12/11 00:50:26;;;;;;;4.35;3.95;;;20.60;41.80;;;;;;5058921;28;43499;-63
2021/12/11 00:53:04;;;;;;;4.03;3.50;;;20.70;41.70;;;;;;5076918;28;43492;-63
2021/12/11 00:55:40;;;;;;;3.80;3.50;;;20.70;41.60;;;;;;5065895;28;43917;-62
2021/12/11 00:58:20;;;;;;;3.50;3.20;;;20.80;41.50;;;;;;5064910;28;44012;-61
2021/12/11 01:00:56;;;;;;;3.78;3.42;;;20.80;41.40;;;;;;5073010;28;43398;-62
2021/12/11 01:03:43;;;;;;;3.78;3.47;;;20.80;41.30;;;;;;5068864;28;44114;-61
2021/12/11 01:06:14;;;;;;;3.53;3.28;;;20.90;41.30;;;;;;5059647;28;43620;-62
2021/12/11 01:08:52;;;;;;;3.95;3.65;;;20.90;41.20;;;;;;5053934;28;43974;-61
2021/12/11 01:11:25;;;;;;;3.50;3.20;;;20.80;41.10;;;;;;5066027;28;43460;-63
2021/12/11 01:14:26;;;;;;;3.25;2.95;;;20.80;41.20;;;;;;5069114;28;43525;-62
2021/12/11 01:17:19;;;;;;;3.30;3.10;;;20.80;41.10;;;;;;5070517;28;43857;-62
2021/12/11 01:19:51;;;;;;;3.42;3.13;;;20.80;41.20;;;;;;5071475;28;43485;-62
2021/12/11 01:22:34;;;;;;;3.45;3.20;;;20.80;41.20;;;;;;5072899;28;43538;-63
2021/12/11 01:25:14;;;;;;;3.10;2.90;;;20.80;41.20;;;;;;5058594;28;43576;-62
2021/12/11 01:27:45;;;;;;;3.42;3.13;;;20.70;41.10;;;;;;5056216;28;44672;-63
2021/12/11 01:30:14;;;;;;;;;;;20.70;41.20;;;;;;5070734;28;44297;-61
2021/12/11 01:32:42;;;;;;;3.05;2.80;;;20.70;41.20;;;;;;5060883;28;43403;-63
2021/12/11 01:35:14;;;;;;;2.83;2.63;;;20.60;41.30;;;;;;5061620;28;43908;-64
2021/12/11 01:37:42;;;;;;;3.10;2.90;;;20.60;41.30;;;;;;5076485;28;44142;-62
2021/12/11 01:40:13;;;;;;;3.00;2.80;;;20.60;41.20;;;;;;5069383;28;43700;-63
2021/12/11 01:42:41;;;;;;;3.00;2.80;;;20.60;41.20;;;;;;5058386;28;43474;-63
2021/12/11 01:45:13;;;;;;;2.88;2.67;;;20.60;41.20;;;;;;5069538;28;43496;-62
2021/12/11 01:47:44;;;;;;;3.22;3.03;;;20.60;41.20;;;;;;5056798;28;44077;-63
2021/12/11 01:50:21;;;;;;;3.20;3.00;;;20.60;41.20;;;;;;5063284;28;43440;-63
2021/12/11 01:52:53;;;;;;;2.92;2.72;;;20.60;41.30;;;;;;5054046;28;43473;-63
2021/12/11 01:55:41;;;;;;;3.15;2.92;;;20.60;41.30;;;;;;5069408;28;43504;-62
2021/12/11 01:58:11;;;;;;;3.28;2.97;;;20.60;41.30;;;;;;5067896;28;43803;-63
2021/12/11 02:00:45;;;;;;;3.35;3.05;;;20.50;41.30;;;;;;5062951;28;43969;-63
2021/12/11 02:03:16;;;;;;;3.08;2.88;;;20.50;41.30;;;;;;5059494;28;44026;-62
2021/12/11 02:05:44;;;;;;;3.03;2.83;;;20.50;41.30;;;;;;5072801;28;43557;-63
2021/12/11 02:08:19;;;;;;;3.47;3.17;;;20.50;41.30;;;;;;5054385;28;44113;-64
2021/12/11 02:10:57;;;;;;;2.70;2.50;;;20.50;41.30;;;;;;5058198;28;43514;-63
2021/12/11 02:13:41;;;;;;;2.80;2.60;;;20.50;41.30;;;;;;5064774;28;43472;-64
2021/12/11 02:16:23;;;;;;;3.30;3.00;;;20.50;41.30;;;;;;5060194;28;44017;-61
2021/12/11 02:19:02;;;;;;;3.17;2.97;;;20.40;41.30;;;;;;5056104;28;43871;-62
2021/12/11 02:21:37;;;;;;;2.92;2.72;;;20.40;41.60;;;;;;5060955;28;43717;-62
2021/12/11 02:24:09;;;;;;;2.70;2.50;;;20.40;41.30;;;;;;5067447;28;43466;-63
2021/12/11 02:26:39;;;;;;;2.63;2.42;;;20.40;41.30;;;;;;5072345;28;43402;-63
2021/12/11 02:29:30;;;;;;;3.25;2.80;;;20.30;41.40;;;;;;5039816;28;43915;-63
2021/12/11 02:32:17;;;;;;;3.22;3.03;;;20.30;41.40;;;;;;5054776;28;43431;-63
2021/12/11 02:34:51;;;;;;;2.50;2.30;;;20.30;41.30;;;;;;5059704;28;43529;-63
2021/12/11 02:37:37;;;;;;;2.88;2.67;;;20.30;41.30;;;;;;5062110;28;43398;-62
2021/12/11 02:40:21;;;;;;;2.60;2.40;;;20.30;41.30;;;;;;5051465;28;43789;-61
2021/12/11 02:42:58;;;;;;;2.88;2.67;;;20.30;41.40;;;;;;5075006;28;43791;-63
2021/12/11 02:45:35;;;;;;;2.80;2.60;;;20.30;41.40;;;;;;5059937;28;43532;-62
2021/12/11 02:48:08;;;;;;;2.75;2.55;;;20.30;41.40;;;;;;5060247;28;43481;-63
2021/12/11 02:50:40;;;;;;;2.67;2.47;;;20.20;41.40;;;;;;5066706;28;43797;-61
2021/12/11 02:53:16;;;;;;;2.95;2.75;;;20.30;41.50;;;;;;5068991;28;43376;-62
2021/12/11 02:55:59;;;;;;;3.33;3.03;;;20.20;41.40;;;;;;5061075;28;43462;-61
2021/12/11 02:58:32;;;;;;;2.90;2.70;;;20.20;41.40;;;;;;5062368;28;43401;-63
2021/12/11 03:01:12;;;;;;;3.15;2.85;;;20.20;41.40;;;;;;5049086;28;44933;-63
2021/12/11 03:03:45;;;;;;;2.78;2.58;;;20.30;41.50;;;;;;5046786;28;43999;-64
2021/12/11 03:06:24;;;;;;;2.97;2.78;;;20.20;41.50;;;;;;5057649;28;43498;-61
2021/12/11 03:08:56;;;;;;;2.90;2.70;;;20.20;41.40;;;;;;5069407;28;43510;-64
2021/12/11 03:11:27;;;;;;;3.22;2.95;;;20.20;41.50;;;;;;5064665;28;44973;-61
2021/12/11 03:13:55;;;;;;;2.83;2.63;;;20.20;41.40;;;;;;5057941;28;43516;-63
2021/12/11 03:16:26;;;;;;;3.00;2.80;;;20.20;41.40;;;;;;5054924;28;43503;-61
2021/12/11 03:18:56;;;;;;;3.03;2.80;;;20.20;41.30;;;;;;5065878;28;43636;-63
2021/12/11 03:21:24;;;;;;;2.55;2.45;;;20.20;41.30;;;;;;5063537;28;44974;-63
2021/12/11 03:23:53;;;;;;;3.33;3.03;;;20.20;41.40;;;;;;5064187;28;43494;-61
2021/12/11 03:26:21;;;;;;;2.90;2.70;;;20.20;41.40;;;;;;5068079;27;43466;-62
2021/12/11 03:28:48;;;;;;;3.33;3.03;;;20.20;41.40;;;;;;5070244;28;43645;-61
2021/12/11 03:31:17;;;;;;;2.95;2.75;;;20.20;41.40;;;;;;5073795;28;43781;-62
2021/12/11 03:33:49;;;;;;;3.00;2.80;;;20.10;41.50;;;;;;5048160;28;43471;-63
2021/12/11 03:36:20;;;;;;;3.10;2.90;;;20.10;41.40;;;;;;5071859;28;43475;-63
2021/12/11 03:38:55;;;;;;;2.88;2.67;;;20.00;41.50;;;;;;5055278;28;43467;-63
2021/12/11 03:41:25;;;;;;;3.25;3.00;;;20.00;41.50;;;;;;5074369;28;43824;-63
2021/12/11 03:43:53;;;;;;;2.83;2.63;;;20.00;41.60;;;;;;5055288;28;43448;-63
2021/12/11 03:46:21;;;;;;;3.45;3.13;;;19.90;41.60;;;;;;5072451;28;43588;-63
2021/12/11 03:49:01;;;;;;;3.35;3.05;;;19.90;41.60;;;;;;5071975;28;43462;-63
2021/12/11 03:51:33;;;;;;;3.00;2.80;;;19.90;41.70;;;;;;5061787;28;43737;-64
2021/12/11 03:54:04;;;;;;;3.33;3.03;;;19.90;41.80;;;;;;5066151;28;43345;-64
2021/12/11 03:56:32;;;;;;;3.25;3.00;;;19.80;41.70;;;;;;5051583;28;43514;-62
2021/12/11 03:59:07;;;;;;;2.85;2.65;;;19.80;41.70;;;;;;5074670;28;43969;-61
2021/12/11 04:01:41;;;;;;;3.10;2.90;;;19.80;41.80;;;;;;5055299;28;43572;-63
2021/12/11 04:04:41;;;;;;;3.50;3.20;;;19.80;41.90;;;;;;5062919;28;43661;-62
2021/12/11 04:07:12;;;;;;;3.13;2.92;;;19.70;41.80;;;;;;5058488;28;43472;-63
2021/12/11 04:09:40;;;;;;;3.00;2.80;;;19.80;41.80;;;;;;5062548;28;43926;-63
2021/12/11 04:12:08;;;;;;;2.80;2.60;;;19.80;41.70;;;;;;5051493;28;43814;-62
2021/12/11 04:14:39;;;;;;;2.95;2.75;;;19.90;41.60;;;;;;5075441;28;43454;-63
2021/12/11 04:17:11;;;;;;;3.30;3.00;;;19.90;41.50;;;;;;5074840;28;43554;-62
2021/12/11 04:19:40;;;;;;;2.97;2.78;;;20.00;41.40;;;;;;5061411;28;43565;-63
2021/12/11 04:22:08;;;;;;;3.03;2.83;;;20.00;41.30;;;;;;5071406;28;44053;-63
2021/12/11 04:24:43;;;;;;;3.08;2.88;;;20.00;41.20;;;;;;5074097;28;43446;-63
2021/12/11 04:27:15;;;;;;;3.08;2.88;;;20.00;41.10;;;;;;5069208;28;43438;-62
2021/12/11 04:29:47;;;;;;;3.22;2.92;;;20.00;41.10;;;;;;5057350;28;43460;-63
2021/12/11 04:32:15;;;;;;;2.95;2.75;;;20.00;41.10;;;;;;5069742;28;44034;-63
2021/12/11 04:34:43;;;;;;;3.15;2.83;;;20.10;41.00;;;;;;5075252;28;43418;-64
2021/12/11 04:37:23;;;;;;;2.72;2.53;;;20.10;40.90;;;;;;5063376;28;43462;-62
2021/12/11 04:39:59;;;;;;;3.00;2.80;;;20.10;40.90;;;;;;5056922;28;43463;-60
2021/12/11 04:45:27;;;;;;;3.20;2.90;;;20.10;40.90;;;;;;5065560;28;43546;-62
2021/12/11 04:49:02;;;;;;;3.38;3.17;;;20.00;41.50;;;;;;5058554;28;43432;-62
2021/12/11 04:51:09;;;;;;;3.00;2.80;;;20.00;41.00;;;;;;5047948;28;43661;-63
2021/12/11 04:54:32;;;;;;;3.13;2.88;;;20.00;40.90;;;;;;5072638;28;44649;-62
2021/12/11 04:57:57;;;;;;;2.92;2.72;;;20.00;40.80;;;;;;5052247;28;43420;-62
2021/12/11 05:00:07;;;;;;;3.03;2.65;;;20.00;40.80;;;;;;5048962;28;43511;-61
2021/12/11 05:11:00;;;;;;;2.95;2.75;;;19.90;40.80;;;;;;5051496;28;43482;-63
2021/12/11 05:13:30;;;;;;;3.22;2.92;;;20.00;40.80;;;;;;5070833;28;43436;-64
2021/12/11 05:16:02;;;;;;;2.83;2.63;;;20.00;40.80;;;;;;5059362;28;43810;-64
2021/12/11 05:18:32;;;;;;;3.20;3.00;;;19.90;40.70;;;;;;5067258;28;43455;-64
2021/12/11 05:21:08;;;;;;;2.92;2.72;;;19.90;40.90;;;;;;5064114;28;43404;-63
2021/12/11 05:23:36;;;;;;;3.22;3.00;;;19.90;40.80;;;;;;5069897;28;43536;-61
2021/12/11 05:26:04;;;;;;;3.13;2.90;;;19.90;40.80;;;;;;5066229;28;43826;-61
2021/12/11 05:28:33;;;;;;;3.33;3.13;;;19.90;40.80;;;;;;5069033;28;43427;-63
2021/12/11 05:31:05;;;;;;;3.20;3.00;;;19.90;40.80;;;;;;5068125;28;43432;-62
2021/12/11 05:33:32;;;;;;;3.50;3.20;;;19.90;40.70;;;;;;5055414;28;43502;-62
2021/12/11 05:36:02;;;;;;;2.75;2.55;;;19.90;40.70;;;;;;5066747;28;43809;-63
2021/12/11 05:38:30;;;;;;;2.80;2.60;;;19.90;40.70;;;;;;5062594;28;44002;-62
2021/12/11 05:41:00;;;;;;;3.30;3.00;;;19.90;40.90;;;;;;5068354;28;43499;-63
2021/12/11 05:43:28;;;;;;;3.10;2.90;;;19.90;40.80;;;;;;5066048;28;43417;-62
2021/12/11 05:45:56;;;;;;;3.00;2.80;;;19.90;40.80;;;;;;5072751;28;43568;-63
2021/12/11 05:48:24;;;;;;;3.17;2.97;;;19.90;40.80;;;;;;5052833;28;43567;-63
2021/12/11 05:50:55;;;;;;;3.08;2.88;;;19.90;40.80;;;;;;5047685;28;43448;-63
2021/12/11 05:53:23;;;;;;;;;;;19.80;40.70;;;;;;5061066;28;43535;-64
2021/12/11 05:55:54;;;;;;;3.13;2.92;;;19.90;40.70;;;;;;5069054;28;43559;-63
2021/12/11 05:58:46;;;;;;;2.83;2.63;;;19.80;40.80;;;;;;5069167;28;43505;-62
2021/12/11 06:01:19;;;;;;;2.80;2.60;;;19.80;40.90;;;;;;5055418;28;43404;-64
2021/12/11 06:03:47;;;;;;;2.83;2.63;;;19.80;40.90;;;;;;5068434;28;43455;-62
2021/12/11 06:06:15;;;;;;;3.13;2.88;;;19.70;40.90;;;;;;5065664;28;43787;-62
2021/12/11 06:08:43;;;;;;;2.70;2.50;;;19.70;40.90;;;;;;5054644;28;44681;-63
2021/12/11 06:11:13;;;;;;;3.20;3.00;;;19.70;41.00;;;;;;5040475;28;43514;-63
2021/12/11 06:13:41;;;;;;;2.90;2.70;;;19.70;40.90;;;;;;5070380;28;43380;-62
2021/12/11 06:16:09;;;;;;;3.00;2.70;;;19.70;41.00;;;;;;5057173;28;44905;-62
2021/12/11 06:18:37;;;;;;;2.97;2.67;;;19.70;41.10;;;;;;5069252;28;44517;-62
2021/12/11 06:21:05;;;;;;;2.60;2.40;;;19.60;41.20;;;;;;5065589;28;43428;-62
2021/12/11 06:23:33;;;;;;;2.75;2.55;;;19.60;41.30;;;;;;5035113;28;43510;-63
2021/12/11 06:26:00;;;;;;;2.95;2.65;;;19.50;41.90;;;;;;5070412;28;43862;-62
2021/12/11 06:28:28;;;;;;;3.00;2.78;;;19.50;41.30;;;;;;5066761;28;44022;-62
2021/12/11 06:30:58;;;;;;;2.80;2.60;;;19.50;41.40;;;;;;5064836;28;43437;-62
2021/12/11 06:33:28;;;;;;;2.70;2.50;;;19.50;41.40;;;;;;5068779;28;43520;-63
2021/12/11 06:35:58;;;;;;;2.78;2.58;;;19.50;41.40;;;;;;5064905;28;44809;-62
2021/12/11 06:38:30;;;;;;;2.80;2.60;;;19.50;41.40;;;;;;5057914;28;43420;-62
2021/12/11 06:40:58;;;;;;;2.75;2.55;;;19.50;41.50;;;;;;5055030;28;43383;-63
2021/12/11 06:43:26;;;;;;;2.97;2.67;;;19.50;41.50;;;;;;5065756;28;43513;-62
2021/12/11 06:45:53;;;;;;;3.03;2.72;;;19.60;41.50;;;;;;5067810;28;43779;-61
2021/12/11 06:48:21;;;;;;;2.70;2.50;;;19.50;41.50;;;;;;5056721;28;43826;-63
2021/12/11 06:50:51;;;;;;;2.90;2.70;;;19.50;41.50;;;;;;5050705;28;43578;-62
2021/12/11 06:53:26;;;;;;;3.17;2.88;;;19.50;41.40;;;;;;5052293;28;43466;-62
2021/12/11 06:55:54;;;;;;;2.90;2.70;;;19.50;41.70;;;;;;5033392;28;43927;-63
2021/12/11 06:58:22;;;;;;;2.70;2.50;;;19.60;41.60;;;;;;5062509;28;44003;-62
2021/12/11 07:00:49;;;;;;;3.50;3.20;;;19.60;41.50;;;;;;5069297;27;43468;-62
2021/12/11 07:03:17;;;;;;;2.45;2.25;;;19.60;41.40;;;;;;5070263;28;43630;-63
2021/12/11 07:05:45;;;;;;;2.70;2.50;;;19.60;41.40;;;;;;5065514;28;43796;-62
2021/12/11 07:08:13;;;;;;;2.60;2.40;;;19.60;41.40;;;;;;5064868;28;43455;-63
2021/12/11 07:10:42;;;;;;;3.08;2.88;;;19.60;42.00;;;;;;5075508;28;43487;-62
2021/12/11 07:13:10;;;;;;;3.15;2.83;;;19.60;41.30;;;;;;5056683;28;43468;-62
2021/12/11 07:15:38;;;;;;;2.88;2.67;;;19.70;41.40;;;;;;5065749;28;43799;-63
2021/12/11 07:18:06;;;;;;;2.90;2.70;;;19.70;41.30;;;;;;5065794;28;43504;-63
2021/12/11 07:20:33;;;;;;;3.00;2.80;;;19.70;41.30;;;;;;5066236;28;43399;-63
2021/12/11 07:23:01;;;;;;;3.17;2.92;;;19.70;41.30;;;;;;5056761;28;43444;-62
2021/12/11 07:25:52;;;;;;;2.80;2.60;;;19.70;41.20;;;;;;5065678;28;43810;-61
2021/12/11 07:28:21;;;;;;;3.00;2.80;;;19.70;41.20;;;;;;5073562;28;43478;-63
2021/12/11 07:30:51;;;;;;;3.42;3.13;;;19.70;41.20;;;;;;5066783;28;43471;-62
2021/12/11 07:33:20;;;;;;;3.28;3.08;;;19.70;41.20;;;;;;5068583;28;43455;-63
2021/12/11 07:35:48;;;;;;;3.15;2.95;;;19.70;41.20;;;;;;5066363;28;43780;-61
2021/12/11 07:38:16;;;;;;;3.83;3.35;;;19.70;41.20;;;;;;5043241;28;43507;-62
2021/12/11 07:40:52;;;;;;;3.70;3.25;;;19.70;41.20;;;;;;5045565;28;43556;-61
2021/12/11 07:43:21;;;;;;;3.35;3.15;;;19.80;41.20;;;;;;5054641;28;43646;-62
2021/12/11 07:45:49;;;;;;;3.58;3.28;;;19.70;41.30;;;;;;5044936;28;45813;-61
2021/12/11 07:48:17;;;;;;;3.42;3.13;;;19.80;41.30;;;;;;5060304;28;43681;-62
2021/12/11 07:50:45;;;;;;;3.70;3.40;;;19.80;41.30;;;;;;5048356;28;43561;-62
2021/12/11 07:53:18;;;;;;;3.92;3.63;;;19.80;41.30;;;;;;5057406;28;43636;-62
2021/12/11 07:55:46;;;;;;;3.45;3.15;;;19.80;41.30;;;;;;5058982;28;43816;-62
2021/12/11 07:58:14;;;;;;;3.83;3.50;;;19.80;41.30;;;;;;5060638;28;43565;-61
2021/12/11 08:00:43;;;;;;;3.55;3.30;;;19.80;41.30;;;;;;5059331;28;43877;-63
2021/12/11 08:03:13;;;;;;;3.17;2.97;;;19.80;41.30;;;;;;5059188;28;43619;-62
2021/12/11 08:05:44;;;;;;;3.43;3.23;;;19.90;41.30;;;;;;5059879;28;43933;-63
2021/12/11 08:08:12;;;;;;;3.92;3.35;;;19.90;41.30;;;;;;5060831;28;43576;-61
2021/12/11 08:10:43;;;;;;;3.83;3.53;;;19.90;41.30;;;;;;5050913;28;44711;-61
2021/12/11 08:13:11;;;;;;;3.30;3.10;;;19.90;41.30;;;;;;5057833;28;43712;-62
2021/12/11 08:15:39;;;;;;;4.78;3.50;;;19.90;41.30;;;;;;5060345;28;43743;-61
2021/12/11 08:18:10;;;;;;;4.25;3.60;;;19.90;41.30;;;;;;5056306;28;43675;-64
2021/12/11 08:20:39;;;;;;;3.60;3.30;;;19.90;41.30;;;;;;5055315;28;43547;-62
2021/12/11 08:23:09;;;;;;;3.78;3.40;;;19.90;41.40;;;;;;5063036;28;43572;-62
2021/12/11 08:25:38;;;;;;;3.55;3.20;;;19.90;41.30;;;;;;5054928;28;43865;-62
2021/12/11 08:28:08;;;;;;;4.63;3.42;;;19.90;41.20;;;;;;5057072;28;43530;-63
2021/12/11 08:30:40;;;;;;;3.40;3.10;;;19.90;41.20;;;;;;5053388;28;43568;-62
2021/12/11 08:33:08;;;;;;;3.45;3.17;;;19.90;41.30;;;;;;5056318;28;43874;-63
2021/12/11 08:35:37;;;;;;;3.40;3.20;;;19.90;41.20;;;;;;5053987;28;43794;-63
2021/12/11 08:38:07;;;;;;;3.13;2.92;;;20.00;41.30;;;;;;5050964;28;43956;-62
2021/12/11 08:40:43;;;;;;;3.40;3.10;;;20.00;41.30;;;;;;5050269;28;43966;-62
2021/12/11 08:43:12;;;;;;;3.58;3.28;;;20.00;41.20;;;;;;5054864;28;43619;-62
2021/12/11 08:45:55;;;;;;;3.55;3.25;;;20.00;41.20;;;;;;5047473;28;44741;-63
2021/12/11 08:48:25;;;;;;;3.17;2.97;;;20.00;41.20;;;;;;5042612;28;43677;-62
2021/12/11 08:51:01;;;;;;;4.28;3.15;;;20.00;41.20;;;;;;5046127;28;44093;-63
2021/12/11 08:53:30;;;;;;;3.22;2.92;;;20.00;41.20;;;;;;5041063;28;43660;-63
2021/12/11 08:55:59;;;;;;;3.53;3.22;;;20.00;41.30;;;;;;5052955;28;44452;-62
2021/12/11 08:58:28;;;;;;;3.88;3.00;;;20.00;41.20;;;;;;5045807;28;44795;-63
2021/12/11 09:01:19;;;;;;;3.33;3.03;;;20.10;41.30;;;;;;5055501;28;43478;-62
2021/12/11 09:03:55;;;;;;;4.32;3.15;;;20.20;41.20;;;;;;5046717;28;43917;-62
2021/12/11 09:06:45;;;;;;;3.38;3.05;;;20.20;41.20;;;;;;5053620;28;45030;-62
2021/12/11 09:09:32;;;;;;;4.00;3.30;;;20.20;41.20;;;;;;5054612;28;43620;-62
2021/12/11 09:12:07;;;;;;;3.28;3.08;;;20.30;41.20;;;;;;5050453;28;43623;-62
2021/12/11 09:14:47;;;;;;;2.90;2.70;;;20.30;41.20;;;;;;5050325;28;43563;-63
2021/12/11 09:17:21;;;;;;;3.33;3.03;;;20.40;41.10;;;;;;5060035;28;44583;-62
2021/12/11 09:19:59;;;;;;;3.17;2.80;;;20.40;41.10;;;;;;5044630;28;43888;-62
2021/12/11 09:22:56;;;;;;;2.85;2.65;;;20.40;41.00;;;;;;5060845;28;43593;-63
2021/12/11 09:25:56;;;;;;;3.47;2.70;;;20.50;41.00;;;;;;5048940;28;43607;-63
2021/12/11 09:28:40;;;;;;;3.20;2.92;;;20.50;41.00;;;;;;5043950;28;44073;-63
2021/12/11 09:31:15;;;;;;;5.53;3.00;;;20.50;41.10;;;;;;5051875;28;43638;-63
2021/12/11 09:33:53;;;;;;;4.18;3.13;;;20.50;41.20;;;;;;5049783;28;43609;-62
2021/12/11 09:36:30;;;;;;;3.25;2.95;;;20.60;41.10;;;;;;5061801;28;44989;-62
2021/12/11 09:39:05;;;;;;;3.60;2.80;;;20.60;41.10;;;;;;5052263;28;43794;-64
2021/12/11 09:41:33;;;;;;;3.15;2.85;;;20.60;41.10;;;;;;5032627;28;43607;-62
2021/12/11 09:44:15;;;;;;;4.10;3.08;;;20.60;41.30;;;;;;5035077;28;43572;-64
2021/12/11 09:46:50;;;;;;;3.17;2.58;;;20.60;41.20;;;;;;5018847;28;43703;-64
2021/12/11 09:49:22;;;;;;;3.20;2.80;;;20.70;41.20;;;;;;5034758;28;44014;-65
2021/12/11 09:52:00;;;;;;;3.70;2.90;;;20.60;41.10;;;;;;5040630;28;44123;-63
2021/12/11 09:54:31;;;;;;;3.20;2.72;;;20.60;41.10;;;;;;5043027;28;43539;-64
2021/12/11 09:57:07;;;;;;;2.58;2.38;;;20.70;41.10;;;;;;5047991;28;43544;-64
2021/12/11 09:59:38;;;;;;;3.13;2.80;;;20.70;41.10;;;;;;5047446;28;44678;-63
2021/12/11 10:02:15;;;;;;;3.92;2.75;;;20.70;41.20;;;;;;5031985;28;44769;-63
2021/12/11 10:04:59;;;;;;;3.08;2.78;;;20.70;41.10;;;;;;5045062;28;43657;-62
2021/12/11 10:07:38;;;;;;;3.08;2.72;;;20.70;41.10;;;;;;5046158;28;43634;-64
2021/12/11 10:10:23;;;;;;;3.30;3.00;;;20.70;41.10;;;;;;5049592;28;43785;-63
2021/12/11 10:12:54;;;;;;;3.75;2.83;;;20.80;41.10;;;;;;5027384;28;43587;-64
2021/12/11 10:15:26;;;;;;;3.67;2.95;;;20.80;41.10;;;;;;5032892;28;43856;-63
2021/12/11 10:18:05;;;;;;;2.90;2.65;;;20.80;41.10;;;;;;5058487;28;43517;-62
2021/12/11 10:20:35;;;;;;;3.28;2.97;;;20.80;41.00;;;;;;5038317;28;45311;-64
2021/12/11 10:23:08;;;;;;;2.90;2.70;;;20.80;41.10;;;;;;5048778;28;44816;-64
2021/12/11 10:25:38;;;;;;;3.53;2.40;;;20.80;41.10;;;;;;5053860;28;43655;-62
2021/12/11 10:28:10;;;;;;;2.85;2.65;;;20.80;41.00;;;;;;5056314;28;43585;-64
2021/12/11 10:30:46;;;;;;;2.85;2.45;;;20.90;41.00;;;;;;5032757;28;43934;-63
2021/12/11 10:33:17;;;;;;;4.88;2.75;;;20.90;40.90;;;;;;5030529;28;43812;-63
2021/12/11 10:35:49;;;;;;;2.65;2.45;;;21.00;41.00;;;;;;5053581;28;43603;-63
2021/12/11 10:38:18;;;;;;;3.20;2.58;;;21.00;40.90;;;;;;5035068;28;43605;-62
2021/12/11 10:40:53;;;;;;;3.42;3.00;;;21.00;40.80;;;;;;5054830;28;43806;-62
2021/12/11 10:43:28;;;;;;;2.67;2.40;;;21.00;40.80;;;;;;5050474;28;44120;-63
2021/12/11 10:45:58;;;;;;;2.78;2.58;;;21.10;40.80;;;;;;5048858;28;43677;-63
2021/12/11 10:48:32;;;;;;;2.63;2.42;;;21.10;40.80;;;;;;5050960;28;43617;-61
2021/12/11 10:51:02;;;;;;;2.95;2.63;;;21.10;40.80;;;;;;5037675;28;43920;-63
2021/12/11 10:53:31;;;;;;;3.42;2.80;;;21.10;40.80;;;;;;5042941;28;43563;-63
2021/12/11 10:56:00;;;;;;;3.03;2.72;;;21.10;40.90;;;;;;5053309;28;43605;-62
2021/12/11 10:58:41;;;;;;;2.80;2.40;;;21.00;40.90;;;;;;5048041;28;43582;-63
2021/12/11 11:01:28;;;;;;;3.17;2.88;;;21.00;41.10;;;;;;5018275;28;44954;-62
2021/12/11 11:04:07;;;;;;;3.83;2.55;;;20.90;41.20;;;;;;5034675;28;44016;-63
2021/12/11 11:06:35;;;;;;;3.20;2.63;;;20.90;41.30;;;;;;5051584;28;44142;-62
2021/12/11 11:09:07;;;;;;;2.80;2.60;;;20.90;41.40;;;;;;5018911;28;43542;-62
2021/12/11 11:11:37;;;;;;;3.35;2.50;;;20.90;41.60;;;;;;5050731;28;43800;-62
2021/12/11 11:14:08;;;;;;;3.90;2.70;;;20.90;42.00;;;;;;5047609;28;44097;-62
2021/12/11 11:16:37;;;;;;;3.60;3.15;;;20.80;41.70;;;;;;5051257;28;43573;-63
2021/12/11 11:19:05;;;;;;;3.97;2.97;;;20.80;41.80;;;;;;5051802;28;43526;-63
2021/12/11 11:21:37;;;;;;;3.35;2.85;;;20.80;41.90;;;;;;5049034;28;44709;-63
2021/12/11 11:24:09;;;;;;;3.55;2.78;;;20.80;42.00;;;;;;5051151;28;43721;-63
2021/12/11 11:26:40;;;;;;;3.63;2.65;;;20.80;42.00;;;;;;5054761;28;43610;-62
2021/12/11 11:29:08;;;;;;;;;;;20.80;42.00;;;;;;5041151;28;43540;-62
2021/12/11 11:31:40;;;;;;;3.90;2.70;;;20.80;42.00;;;;;;5049293;28;44671;-62
2021/12/11 11:34:14;;;;;;;4.07;2.80;;;20.80;42.10;;;;;;5045655;28;43521;-62
2021/12/11 11:36:43;;;;;;;3.95;2.75;;;20.80;42.20;;;;;;5052550;28;43736;-63
2021/12/11 11:39:17;;;;;;;5.68;2.88;;;20.80;42.30;;;;;;5039573;28;43593;-62
2021/12/11 11:41:53;;;;;;;3.55;2.78;;;20.90;42.20;;;;;;5045856;28;44027;-64
2021/12/11 11:44:24;;;;;;;3.58;3.00;;;20.90;42.20;;;;;;5050767;28;43923;-62
2021/12/11 11:46:54;;;;;;;3.67;2.80;;;20.90;42.10;;;;;;5046514;28;43677;-63
2021/12/11 11:49:22;;;;;;;4.07;2.92;;;20.90;42.00;;;;;;5049530;28;43549;-63
2021/12/11 11:52:07;;;;;;;4.38;2.85;;;20.90;42.00;;;;;;5031835;28;44186;-62
2021/12/11 11:54:37;;;;;;;3.58;2.83;;;21.00;42.00;;;;;;5037262;28;43936;-62
2021/12/11 11:57:27;;;;;;;5.47;2.97;;;21.00;41.90;;;;;;5048920;28;43580;-62
2021/12/11 11:59:58;;;;;;;3.67;2.70;;;21.10;42.00;;;;;;5042079;28;43636;-63
2021/12/11 12:02:28;;;;;;;4.57;3.00;;;21.10;41.90;;;;;;5053118;28;44702;-62
2021/12/11 12:04:58;;;;;;;4.15;3.05;;;21.10;41.90;;;;;;5050223;28;44014;-62
2021/12/11 12:07:29;;;;;;;3.28;2.75;;;21.20;41.90;;;;;;5033375;28;43605;-62
2021/12/11 12:10:07;;;;;;;3.38;2.92;;;21.20;41.90;;;;;;5057894;28;43739;-63
2021/12/11 12:12:36;;;;;;;4.30;2.88;;;21.20;41.90;;;;;;5056543;28;44334;-61
2021/12/11 12:15:07;;;;;;;3.85;2.80;;;21.20;41.90;;;;;;5054690;28;43804;-61
2021/12/11 12:17:34;;;;;;;;;;;21.20;41.90;;;;;;5054405;28;43544;-62
2021/12/11 12:20:09;;;;;;;3.33;2.67;;;21.20;41.90;;;;;;5052556;28;43516;-62
2021/12/11 12:22:39;;;;;;;3.90;2.85;;;21.20;41.80;;;;;;5050007;28;45046;-63
2021/12/11 12:25:08;;;;;;;4.03;2.78;;;21.30;41.80;;;;;;5054349;28;43686;-62
2021/12/11 12:27:39;;;;;;;3.60;3.00;;;21.30;41.80;;;;;;5057120;28;43572;-62
2021/12/11 12:30:21;;;;;;;3.70;2.97;;;21.30;41.90;;;;;;5057528;28;43552;-62
2021/12/11 12:32:52;;;;;;;3.15;2.65;;;21.30;41.80;;;;;;5043005;28;44190;-62
2021/12/11 12:35:20;;;;;;;;;;;21.30;41.80;;;;;;5040538;28;44156;-62
2021/12/11 12:37:48;;;;;;;3.33;2.75;;;21.30;41.80;;;;;;5058409;28;43622;-63
2021/12/11 12:40:35;;;;;;;2.80;2.60;;;21.30;41.90;;;;;;5052475;28;44892;-63
2021/12/11 12:43:11;;;;;;;3.58;2.70;;;21.30;41.90;;;;;;5050858;28;44266;-61
2021/12/11 12:45:45;;;;;;;3.63;2.55;;;21.30;42.00;;;;;;5036430;28;43564;-62
2021/12/11 12:48:20;;;;;;;2.95;2.58;;;21.30;42.00;;;;;;5052064;28;43623;-63
2021/12/11 12:50:47;;;;;;;2.67;2.47;;;21.30;42.00;;;;;;5055017;28;43577;-63
2021/12/11 12:53:15;;;;;;;4.38;2.63;;;21.30;42.00;;;;;;5036681;28;44639;-62
2021/12/11 12:55:49;;;;;;;3.75;2.70;;;21.30;42.00;;;;;;5032493;28;44024;-62
2021/12/11 12:58:26;;;;;;;2.72;2.42;;;21.30;42.00;;;;;;5057536;28;43581;-63
2021/12/11 13:01:06;;;;;;;4.47;2.60;;;21.30;42.00;;;;;;5056865;28;43915;-62
2021/12/11 13:03:38;;;;;;;3.88;2.50;;;21.30;42.00;;;;;;5039602;28;44538;-62
2021/12/11 13:06:17;;;;;;;2.88;2.50;;;21.40;42.10;;;;;;5048443;28;43629;-62
2021/12/11 13:08:50;;;;;;;3.97;2.50;;;21.40;42.10;;;;;;5058717;28;43584;-63
2021/12/11 13:11:30;;;;;;;2.60;2.40;;;21.40;42.10;;;;;;5056086;28;43587;-62
2021/12/11 13:14:00;;;;;;;2.70;2.50;;;21.40;42.10;;;;;;5051694;28;44630;-62
2021/12/11 13:16:33;;;;;;;3.42;2.60;;;21.40;42.10;;;;;;5042760;28;43671;-63
2021/12/11 13:19:07;;;;;;;2.40;2.22;;;21.40;42.10;;;;;;5055233;28;43645;-62
2021/12/11 13:21:45;;;;;;;2.85;2.30;;;21.50;42.10;;;;;;5063526;28;43565;-63
2021/12/11 13:24:14;;;;;;;2.70;2.50;;;21.50;41.90;;;;;;5045741;28;43805;-61
2021/12/11 13:26:45;;;;;;;3.38;2.70;;;21.60;41.90;;;;;;5050919;28;43574;-63
2021/12/11 13:29:16;;;;;;;2.90;2.65;;;21.60;42.00;;;;;;5037682;28;43704;-62
2021/12/11 13:32:00;;;;;;;2.63;2.42;;;21.60;41.90;;;;;;5049760;28;43571;-62